createdAt,value
2019-05-18T00:02:13.015Z,16.66
2019-05-18T00:04:44.000Z,16.65
2019-05-18T00:07:14.999Z,16.65
2019-05-18T00:09:45.973Z,16.63
2019-05-18T00:12:16.993Z,16.60
2019-05-18T00:14:47.942Z,16.60
2019-05-18T00:17:25.412Z,16.58
2019-05-18T00:19:51.987Z,16.57
2019-05-18T00:22:22.955Z,16.56
2019-05-18T00:24:55.018Z,16.55
2019-05-18T00:27:26.071Z,16.54
2019-05-18T00:29:57.050Z,16.51
2019-05-18T00:32:28.026Z,16.49
2019-05-18T00:34:59.024Z,16.48
2019-05-18T00:37:29.995Z,16.47
2019-05-18T00:40:01.557Z,16.46
2019-05-18T00:42:32.563Z,16.44
2019-05-18T00:45:04.504Z,16.44
2019-05-18T00:47:41.360Z,16.41
2019-05-18T00:50:09.102Z,16.41
2019-05-18T00:52:40.087Z,16.40
2019-05-18T00:55:11.252Z,16.36
2019-05-18T00:57:42.527Z,16.35
2019-05-18T01:00:14.080Z,16.33
2019-05-18T01:02:45.088Z,16.33
2019-05-18T01:05:16.329Z,16.30
2019-05-18T01:07:48.296Z,16.30
2019-05-18T01:10:19.368Z,16.28
2019-05-18T01:12:50.370Z,16.27
2019-05-18T01:15:21.732Z,16.25
2019-05-18T01:17:57.573Z,16.23
2019-05-18T01:20:25.406Z,16.22
2019-05-18T01:22:56.412Z,16.20
2019-05-18T01:25:27.845Z,16.19
2019-05-18T01:27:58.833Z,16.16
2019-05-18T01:30:29.811Z,16.15
2019-05-18T01:33:00.782Z,16.12
2019-05-18T01:35:31.783Z,16.11
2019-05-18T01:38:02.773Z,16.11
2019-05-18T01:40:33.772Z,16.11
2019-05-18T01:43:04.774Z,16.11
2019-05-18T01:45:35.744Z,16.08
2019-05-18T01:48:14.179Z,16.08
2019-05-18T01:50:39.886Z,16.07
2019-05-18T01:53:10.905Z,16.04
2019-05-18T01:55:41.879Z,16.03
2019-05-18T01:58:12.885Z,16.02
2019-05-18T02:00:43.853Z,16.03
2019-05-18T02:03:14.852Z,16.00
2019-05-18T02:05:45.859Z,15.98
2019-05-18T02:08:16.838Z,15.98
2019-05-18T02:10:47.814Z,15.96
2019-05-18T02:13:18.841Z,15.96
2019-05-18T02:15:49.820Z,15.95
2019-05-18T02:18:29.194Z,15.93
2019-05-18T02:20:55.078Z,15.94
2019-05-18T02:23:26.103Z,15.93
2019-05-18T02:25:57.083Z,15.92
2019-05-18T02:28:28.143Z,15.92
2019-05-18T02:30:59.114Z,15.89
2019-05-18T02:33:30.119Z,15.89
2019-05-18T02:36:01.534Z,15.88
2019-05-18T02:38:32.530Z,15.86
2019-05-18T02:41:03.504Z,15.84
2019-05-18T02:43:34.587Z,15.82
2019-05-18T02:46:05.913Z,15.81
2019-05-18T02:48:48.820Z,15.80
2019-05-18T02:51:11.680Z,15.77
2019-05-18T02:53:42.292Z,15.74
2019-05-18T02:56:13.262Z,15.72
2019-05-18T02:58:44.241Z,15.70
2019-05-18T03:01:15.210Z,15.68
2019-05-18T03:03:46.195Z,15.67
2019-05-18T03:06:17.164Z,15.65
2019-05-18T03:08:48.142Z,15.63
2019-05-18T03:11:19.157Z,15.61
2019-05-18T03:13:50.084Z,15.60
2019-05-18T03:16:21.056Z,15.58
2019-05-18T03:19:06.716Z,15.55
2019-05-18T03:21:24.712Z,15.52
2019-05-18T03:23:55.696Z,15.50
2019-05-18T03:26:26.674Z,15.47
2019-05-18T03:28:57.658Z,15.45
2019-05-18T03:31:28.624Z,15.45
2019-05-18T03:33:59.624Z,15.44
2019-05-18T03:36:30.671Z,15.42
2019-05-18T03:39:01.675Z,15.41
2019-05-18T03:41:32.700Z,15.40
2019-05-18T03:44:03.763Z,15.39
2019-05-18T03:46:34.734Z,15.38
2019-05-18T03:49:05.818Z,15.37
2019-05-18T03:51:36.805Z,15.38
2019-05-18T03:54:07.788Z,15.37
2019-05-18T03:56:38.792Z,15.37
2019-05-18T03:59:09.764Z,15.36
2019-05-18T04:01:41.108Z,15.37
2019-05-18T04:04:12.098Z,15.36
2019-05-18T04:06:43.078Z,15.36
2019-05-18T04:09:14.060Z,15.35
2019-05-18T04:11:45.064Z,15.35
2019-05-18T04:14:16.082Z,15.36
2019-05-18T04:16:47.080Z,15.36
2019-05-18T04:19:18.054Z,15.38
2019-05-18T04:21:49.046Z,15.39
2019-05-18T04:24:20.005Z,15.39
2019-05-18T04:26:50.999Z,15.41
2019-05-18T04:29:21.997Z,15.42
2019-05-18T04:31:52.984Z,15.45
2019-05-18T04:34:23.966Z,15.46
2019-05-18T04:36:54.947Z,15.49
2019-05-18T04:39:25.942Z,15.51
2019-05-18T04:41:56.908Z,15.54
2019-05-18T04:44:27.912Z,15.56
2019-05-18T04:46:58.873Z,15.59
2019-05-18T04:49:29.870Z,15.62
2019-05-18T04:52:00.863Z,15.65
2019-05-18T04:54:31.853Z,15.68
2019-05-18T04:57:02.832Z,15.71
2019-05-18T04:59:33.818Z,15.76
2019-05-18T05:02:04.806Z,15.80
2019-05-18T05:04:35.813Z,15.84
2019-05-18T05:07:06.751Z,15.88
2019-05-18T05:09:37.733Z,15.93
2019-05-18T05:12:08.749Z,15.97
2019-05-18T05:14:39.746Z,16.03
2019-05-18T05:17:10.753Z,16.08
2019-05-18T05:19:41.760Z,16.16
2019-05-18T05:22:12.740Z,16.23
2019-05-18T05:24:43.721Z,16.30
2019-05-18T05:27:14.713Z,16.35
2019-05-18T05:29:45.685Z,16.41
2019-05-18T05:32:16.665Z,16.46
2019-05-18T05:34:47.655Z,16.52
2019-05-18T05:37:18.633Z,16.58
2019-05-18T05:39:49.619Z,16.61
2019-05-18T05:42:20.890Z,16.68
2019-05-18T05:44:51.864Z,16.72
2019-05-18T05:47:22.844Z,16.80
2019-05-18T05:49:53.995Z,16.86
2019-05-18T05:52:24.977Z,16.93
2019-05-18T05:54:55.991Z,16.98
2019-05-18T05:57:26.965Z,17.08
2019-05-18T05:59:57.949Z,17.13
2019-05-18T06:02:28.917Z,17.18
2019-05-18T06:04:59.921Z,17.24
2019-05-18T06:07:30.947Z,17.30
2019-05-18T06:10:01.920Z,17.37
2019-05-18T06:12:32.934Z,17.42
2019-05-18T06:15:05.646Z,17.46
2019-05-18T06:17:36.624Z,17.52
2019-05-18T06:20:08.819Z,17.56
2019-05-18T06:22:39.818Z,17.63
2019-05-18T06:25:11.472Z,17.72
2019-05-18T06:27:42.438Z,17.80
2019-05-18T06:30:15.191Z,17.86
2019-05-18T06:32:46.168Z,17.95
2019-05-18T06:35:17.175Z,18.00
2019-05-18T06:37:48.140Z,18.09
2019-05-18T06:40:19.162Z,18.17
2019-05-18T06:42:50.142Z,18.26
2019-05-18T06:45:21.279Z,18.33
2019-05-18T06:47:52.266Z,18.40
2019-05-18T06:50:29.590Z,18.49
2019-05-18T06:53:00.847Z,18.57
2019-05-18T06:55:32.222Z,18.64
2019-05-18T06:58:03.252Z,18.69
2019-05-18T07:00:34.253Z,18.77
2019-05-18T07:03:05.312Z,18.84
2019-05-18T07:05:36.314Z,18.90
2019-05-18T07:08:07.330Z,18.94
2019-05-18T07:10:38.334Z,18.99
2019-05-18T07:13:09.339Z,19.02
2019-05-18T07:15:42.190Z,19.06
2019-05-18T07:18:14.146Z,19.08
2019-05-18T07:20:45.129Z,19.10
2019-05-18T07:23:16.125Z,19.14
2019-05-18T07:25:47.106Z,19.21
2019-05-18T07:28:18.082Z,19.28
2019-05-18T07:30:49.115Z,19.30
2019-05-18T07:33:20.092Z,19.30
2019-05-18T07:35:51.082Z,19.31
2019-05-18T07:38:22.072Z,19.37
2019-05-18T07:40:53.051Z,19.41
2019-05-18T07:43:24.045Z,19.42
2019-05-18T07:45:55.005Z,19.44
2019-05-18T07:48:25.981Z,19.46
2019-05-18T07:50:56.953Z,19.46
2019-05-18T07:53:27.936Z,19.49
2019-05-18T07:55:58.932Z,19.53
2019-05-18T07:58:29.936Z,19.60
2019-05-18T08:01:01.588Z,19.68
2019-05-18T08:03:35.514Z,19.73
2019-05-18T08:06:06.499Z,19.79
2019-05-18T08:08:37.466Z,19.86
2019-05-18T08:11:08.452Z,19.94
2019-05-18T08:13:39.427Z,20.00
2019-05-18T08:16:10.393Z,20.04
2019-05-18T08:18:41.374Z,20.10
2019-05-18T08:21:12.361Z,20.17
2019-05-18T08:23:43.353Z,20.26
2019-05-18T08:26:14.327Z,20.36
2019-05-18T08:28:45.309Z,20.40
2019-05-18T08:31:16.292Z,20.45
2019-05-18T08:33:47.299Z,20.47
2019-05-18T08:36:18.294Z,20.52
2019-05-18T08:38:49.270Z,20.53
2019-05-18T08:41:21.135Z,20.54
2019-05-18T08:43:52.106Z,20.57
2019-05-18T08:46:23.078Z,20.57
2019-05-18T08:48:54.073Z,20.57
2019-05-18T08:51:25.029Z,20.60
2019-05-18T08:53:56.001Z,20.67
2019-05-18T08:56:26.984Z,20.76
2019-05-18T08:58:57.961Z,20.89
2019-05-18T09:01:28.921Z,21.02
2019-05-18T09:03:59.938Z,21.17
2019-05-18T09:06:30.977Z,21.28
2019-05-18T09:09:01.965Z,21.38
2019-05-18T09:11:32.940Z,21.47
2019-05-18T09:14:03.916Z,21.62
2019-05-18T09:16:34.928Z,21.74
2019-05-18T09:19:06.040Z,21.83
2019-05-18T09:21:36.992Z,21.91
2019-05-18T09:24:07.978Z,22.02
2019-05-18T09:26:39.151Z,22.15
2019-05-18T09:29:10.241Z,22.30
2019-05-18T09:31:41.381Z,22.42
2019-05-18T09:34:12.376Z,22.53
2019-05-18T09:36:43.371Z,22.67
2019-05-18T09:39:14.387Z,22.77
2019-05-18T09:41:45.382Z,22.78
2019-05-18T09:44:16.352Z,22.78
2019-05-18T09:46:47.384Z,22.81
2019-05-18T09:49:19.426Z,22.87
2019-05-18T09:51:50.475Z,22.88
2019-05-18T09:54:21.444Z,22.88
2019-05-18T09:56:52.441Z,22.91
2019-05-18T09:59:23.413Z,22.98
2019-05-18T10:01:54.374Z,23.03
2019-05-18T10:04:25.360Z,23.10
2019-05-18T10:06:56.332Z,23.19
2019-05-18T10:09:37.035Z,23.30
2019-05-18T10:12:00.019Z,23.42
2019-05-18T10:14:31.044Z,23.47
2019-05-18T10:17:02.038Z,23.57
2019-05-18T10:19:33.018Z,23.62
2019-05-18T10:22:03.989Z,23.62
2019-05-18T10:24:34.975Z,23.56
2019-05-18T10:27:05.948Z,23.48
2019-05-18T10:29:37.187Z,23.49
2019-05-18T10:32:08.534Z,23.51
2019-05-18T10:34:41.160Z,23.53
2019-05-18T10:37:12.178Z,23.58
2019-05-18T10:39:43.139Z,23.61
2019-05-18T10:42:14.128Z,23.67
2019-05-18T10:44:45.095Z,23.71
2019-05-18T10:47:16.089Z,23.76
2019-05-18T10:49:48.147Z,23.80
2019-05-18T10:52:19.121Z,23.83
2019-05-18T10:54:50.091Z,23.87
2019-05-18T10:57:21.086Z,23.91
2019-05-18T10:59:52.049Z,23.94
2019-05-18T11:02:23.039Z,23.97
2019-05-18T11:04:54.017Z,24.02
2019-05-18T11:07:25.022Z,24.05
2019-05-18T11:09:55.998Z,24.09
2019-05-18T11:12:26.982Z,24.13
2019-05-18T11:14:57.957Z,24.17
2019-05-18T11:17:28.947Z,24.20
2019-05-18T11:20:01.387Z,24.25
2019-05-18T11:22:32.416Z,24.29
2019-05-18T11:25:03.783Z,24.35
2019-05-18T11:27:34.747Z,24.39
2019-05-18T11:30:10.792Z,24.42
2019-05-18T11:32:42.792Z,24.46
2019-05-18T11:35:14.096Z,24.49
2019-05-18T11:37:45.081Z,24.55
2019-05-18T11:40:16.347Z,24.60
2019-05-18T11:42:47.347Z,24.66
2019-05-18T11:45:19.523Z,24.74
2019-05-18T11:47:50.503Z,24.83
2019-05-18T11:50:21.944Z,24.92
2019-05-18T11:52:52.907Z,24.99
2019-05-18T11:55:23.883Z,25.08
2019-05-18T11:57:54.865Z,25.14
2019-05-18T12:00:26.047Z,25.21
2019-05-18T12:02:57.080Z,25.28
2019-05-18T12:05:28.073Z,25.31
2019-05-18T12:07:59.056Z,25.35
2019-05-18T12:10:30.021Z,25.39
2019-05-18T12:13:01.558Z,25.42
2019-05-18T12:15:32.895Z,25.43
2019-05-18T12:18:03.870Z,25.44
2019-05-18T12:20:34.937Z,25.46
2019-05-18T12:23:08.232Z,25.50
2019-05-18T12:25:38.580Z,25.56
2019-05-18T12:28:09.575Z,25.57
2019-05-18T12:30:41.005Z,25.61
2019-05-18T12:33:11.972Z,25.62
2019-05-18T12:35:43.112Z,25.65
2019-05-18T12:38:14.093Z,25.68
2019-05-18T12:40:45.067Z,25.71
2019-05-18T12:43:16.028Z,25.76
2019-05-18T12:45:47.000Z,25.79
2019-05-18T12:48:17.966Z,25.83
2019-05-18T12:50:48.946Z,25.88
2019-05-18T12:53:19.915Z,25.91
2019-05-18T12:55:50.916Z,25.94
2019-05-18T12:58:21.887Z,25.98
2019-05-18T13:00:52.868Z,26.00
2019-05-18T13:03:24.915Z,26.03
2019-05-18T13:05:55.897Z,26.08
2019-05-18T13:08:26.884Z,26.15
2019-05-18T13:10:57.859Z,26.22
2019-05-18T13:13:28.823Z,26.28
2019-05-18T13:15:59.786Z,26.36
2019-05-18T13:18:30.760Z,26.42
2019-05-18T13:21:01.734Z,26.44
2019-05-18T13:23:32.739Z,26.48
2019-05-18T13:26:03.708Z,26.52
2019-05-18T13:28:34.693Z,26.58
2019-05-18T13:31:05.669Z,26.64
2019-05-18T13:33:36.649Z,26.69
2019-05-18T13:36:07.623Z,26.73
2019-05-18T13:38:40.252Z,26.76
2019-05-18T13:41:11.238Z,26.70
2019-05-18T13:43:42.208Z,26.65
2019-05-18T13:46:18.396Z,26.65
2019-05-18T13:48:50.453Z,26.65
2019-05-18T13:51:21.420Z,26.67
2019-05-18T13:53:52.384Z,26.70
2019-05-18T13:56:23.382Z,26.76
2019-05-18T13:58:54.420Z,26.78
2019-05-18T14:01:25.387Z,26.82
2019-05-18T14:03:56.354Z,26.85
2019-05-18T14:06:27.328Z,26.91
2019-05-18T14:08:58.313Z,26.96
2019-05-18T14:11:29.284Z,27.00
2019-05-18T14:14:00.284Z,27.05
2019-05-18T14:16:31.225Z,27.10
2019-05-18T14:19:02.495Z,27.17
2019-05-18T14:21:33.479Z,27.20
2019-05-18T14:24:04.492Z,27.24
2019-05-18T14:26:35.487Z,27.29
2019-05-18T14:29:06.464Z,27.30
2019-05-18T14:31:37.427Z,27.31
2019-05-18T14:34:08.397Z,27.28
2019-05-18T14:36:39.351Z,27.26
2019-05-18T14:39:10.336Z,27.24
2019-05-18T14:41:42.622Z,27.24
2019-05-18T14:44:13.678Z,27.20
2019-05-18T14:46:44.650Z,27.14
2019-05-18T14:49:15.614Z,27.12
2019-05-18T14:51:46.605Z,27.10
2019-05-18T14:54:17.561Z,27.09
2019-05-18T14:56:48.530Z,27.07
2019-05-18T14:59:19.503Z,27.05
2019-05-18T15:01:50.494Z,27.02
2019-05-18T15:04:21.456Z,27.00
2019-05-18T15:06:52.459Z,26.99
2019-05-18T15:09:23.449Z,26.96
2019-05-18T15:11:54.422Z,26.93
2019-05-18T15:14:25.397Z,26.90
2019-05-18T15:16:56.405Z,26.88
2019-05-18T15:19:27.395Z,26.86
2019-05-18T15:21:58.363Z,26.80
2019-05-18T15:24:29.337Z,26.78
2019-05-18T15:27:01.508Z,26.73
2019-05-18T15:29:32.500Z,26.66
2019-05-18T15:32:03.466Z,26.59
2019-05-18T15:34:34.465Z,26.48
2019-05-18T15:37:05.443Z,26.34
2019-05-18T15:39:36.427Z,26.22
2019-05-18T15:42:07.468Z,26.12
2019-05-18T15:44:41.087Z,26.06
2019-05-18T15:47:11.126Z,26.02
2019-05-18T15:49:43.200Z,25.99
2019-05-18T15:52:14.166Z,25.96
2019-05-18T15:54:45.160Z,25.97
2019-05-18T15:57:16.120Z,25.96
2019-05-18T15:59:48.185Z,25.98
2019-05-18T16:02:19.155Z,25.97
2019-05-18T16:04:50.154Z,25.95
2019-05-18T16:07:21.416Z,25.94
2019-05-18T16:09:52.468Z,25.95
2019-05-18T16:12:23.430Z,25.94
2019-05-18T16:14:54.435Z,25.93
2019-05-18T16:17:38.457Z,25.90
2019-05-18T16:19:59.633Z,25.89
2019-05-18T16:22:31.692Z,25.85
2019-05-18T16:25:02.649Z,25.79
2019-05-18T16:27:33.634Z,25.77
2019-05-18T16:30:07.944Z,25.75
2019-05-18T16:32:38.912Z,25.74
2019-05-18T16:35:11.221Z,25.72
2019-05-18T16:37:42.920Z,25.71
2019-05-18T16:40:14.241Z,25.72
2019-05-18T16:42:46.717Z,25.71
2019-05-18T16:45:18.231Z,25.71
2019-05-18T16:47:49.493Z,25.71
2019-05-18T16:50:20.645Z,25.69
2019-05-18T16:52:51.640Z,25.70
2019-05-18T16:55:22.591Z,25.68
2019-05-18T16:57:53.559Z,25.68
2019-05-18T17:00:27.340Z,25.66
2019-05-18T17:02:58.347Z,25.65
2019-05-18T17:05:29.317Z,25.64
2019-05-18T17:08:00.289Z,25.62
2019-05-18T17:10:31.256Z,25.60
2019-05-18T17:13:02.241Z,25.59
2019-05-18T17:15:33.219Z,25.60
2019-05-18T17:18:04.181Z,25.61
2019-05-18T17:20:35.165Z,25.60
2019-05-18T17:23:06.097Z,25.59
2019-05-18T17:25:37.144Z,25.59
2019-05-18T17:28:08.116Z,25.59
2019-05-18T17:30:42.477Z,25.57
2019-05-18T17:33:11.773Z,25.57
2019-05-18T17:35:57.980Z,25.55
2019-05-18T17:38:15.428Z,25.54
2019-05-18T17:40:46.390Z,25.52
2019-05-18T17:43:17.758Z,25.50
2019-05-18T17:45:49.789Z,25.49
2019-05-18T17:48:20.775Z,25.46
2019-05-18T17:50:52.808Z,25.44
2019-05-18T17:53:23.783Z,25.42
2019-05-18T17:55:55.821Z,25.41
2019-05-18T17:58:26.802Z,25.38
2019-05-18T18:00:58.873Z,25.36
2019-05-18T18:03:30.913Z,25.34
2019-05-18T18:06:02.962Z,25.32
2019-05-18T18:08:34.600Z,25.30
2019-05-18T18:11:05.578Z,25.29
2019-05-18T18:13:36.548Z,25.29
2019-05-18T18:16:07.585Z,25.27
2019-05-18T18:18:38.587Z,25.24
2019-05-18T18:21:09.566Z,25.21
2019-05-18T18:23:40.588Z,25.19
2019-05-18T18:26:11.544Z,25.16
2019-05-18T18:28:42.528Z,25.11
2019-05-18T18:31:13.762Z,25.08
2019-05-18T18:33:44.773Z,25.05
2019-05-18T18:36:15.715Z,25.01
2019-05-18T18:38:47.763Z,24.98
2019-05-18T18:41:18.732Z,24.93
2019-05-18T18:43:49.721Z,24.89
2019-05-18T18:46:20.691Z,24.87
2019-05-18T18:48:51.683Z,24.83
2019-05-18T18:51:22.664Z,24.81
2019-05-18T18:53:53.627Z,24.76
2019-05-18T18:56:24.622Z,24.72
2019-05-18T18:58:55.588Z,24.68
2019-05-18T19:01:26.559Z,24.61
2019-05-18T19:03:57.555Z,24.56
2019-05-18T19:06:28.588Z,24.49
2019-05-18T19:08:59.555Z,24.43
2019-05-18T19:11:30.531Z,24.37
2019-05-18T19:14:02.154Z,24.31
2019-05-18T19:16:33.118Z,24.25
2019-05-18T19:19:04.125Z,24.18
2019-05-18T19:21:35.113Z,24.13
2019-05-18T19:24:06.996Z,24.04
2019-05-18T19:26:37.979Z,23.99
2019-05-18T19:29:08.976Z,23.93
2019-05-18T19:31:39.944Z,23.86
2019-05-18T19:34:10.953Z,23.82
2019-05-18T19:36:41.925Z,23.77
2019-05-18T19:39:12.890Z,23.71
2019-05-18T19:41:43.969Z,23.65
2019-05-18T19:44:14.933Z,23.59
2019-05-18T19:46:45.931Z,23.53
2019-05-18T19:49:16.921Z,23.46
2019-05-18T19:51:47.906Z,23.39
2019-05-18T19:54:18.892Z,23.34
2019-05-18T19:56:50.394Z,23.29
2019-05-18T19:59:21.454Z,23.24
2019-05-18T20:01:52.422Z,23.18
2019-05-18T20:04:23.481Z,23.13
2019-05-18T20:06:54.465Z,23.08
2019-05-18T20:09:25.461Z,23.03
2019-05-18T20:11:56.434Z,22.99
2019-05-18T20:14:27.431Z,22.95
2019-05-18T20:16:58.417Z,22.88
2019-05-18T20:19:38.658Z,22.84
2019-05-18T20:22:04.843Z,22.80
2019-05-18T20:24:35.839Z,22.76
2019-05-18T20:27:06.805Z,22.71
2019-05-18T20:29:37.775Z,22.67
2019-05-18T20:32:08.764Z,22.64
2019-05-18T20:34:39.767Z,22.60
2019-05-18T20:37:10.743Z,22.54
2019-05-18T20:39:41.994Z,22.52
2019-05-18T20:42:12.985Z,22.46
2019-05-18T20:44:44.233Z,22.41
2019-05-18T20:47:15.201Z,22.36
2019-05-18T20:49:46.856Z,22.32
2019-05-18T20:52:17.833Z,22.29
2019-05-18T20:54:48.829Z,22.24
2019-05-18T20:57:21.466Z,22.20
2019-05-18T20:59:52.453Z,22.16
2019-05-18T21:02:24.729Z,22.12
2019-05-18T21:04:55.704Z,22.08
2019-05-18T21:07:26.678Z,22.03
2019-05-18T21:09:57.659Z,22.01
2019-05-18T21:12:28.660Z,21.95
2019-05-18T21:14:59.625Z,21.92
2019-05-18T21:17:30.577Z,21.87
2019-05-18T21:20:01.573Z,21.83
2019-05-18T21:22:32.549Z,21.79
2019-05-18T21:25:03.955Z,21.76
2019-05-18T21:27:34.913Z,21.72
2019-05-18T21:30:07.621Z,21.69
2019-05-18T21:32:38.603Z,21.65
2019-05-18T21:35:09.622Z,21.60
2019-05-18T21:37:40.594Z,21.57
2019-05-18T21:40:12.525Z,21.55
2019-05-18T21:42:43.551Z,21.51
2019-05-18T21:45:15.841Z,21.47
2019-05-18T21:48:06.352Z,21.43
2019-05-18T21:50:37.494Z,21.39
2019-05-18T21:53:08.450Z,21.33
2019-05-18T21:55:39.415Z,21.30
2019-05-18T21:58:12.276Z,21.27
2019-05-18T22:00:43.657Z,21.24
2019-05-18T22:03:14.610Z,21.20
2019-05-18T22:05:45.577Z,21.17
2019-05-18T22:08:16.558Z,21.14
2019-05-18T22:10:47.523Z,21.09
2019-05-18T22:13:18.483Z,21.05
2019-05-18T22:15:49.452Z,21.03
2019-05-18T22:18:24.582Z,20.99
2019-05-18T22:20:53.080Z,20.96
2019-05-18T22:23:24.032Z,20.93
2019-05-18T22:25:57.018Z,20.89
2019-05-18T22:28:27.673Z,20.87
2019-05-18T22:30:58.629Z,20.82
2019-05-18T22:33:29.591Z,20.80
2019-05-18T22:36:00.558Z,20.77
2019-05-18T22:38:31.566Z,20.74
2019-05-18T22:41:02.488Z,20.70
2019-05-18T22:43:33.540Z,20.66
2019-05-18T22:46:04.465Z,20.64
2019-05-18T22:48:41.237Z,20.60
2019-05-18T22:51:08.099Z,20.55
2019-05-18T22:53:39.069Z,20.51
2019-05-18T22:56:10.028Z,20.47
2019-05-18T22:58:40.994Z,20.45
2019-05-18T23:01:11.946Z,20.41
2019-05-18T23:03:43.883Z,20.39
2019-05-18T23:06:14.854Z,20.37
2019-05-18T23:08:45.815Z,20.34
2019-05-18T23:11:16.803Z,20.31
2019-05-18T23:13:47.806Z,20.28
2019-05-18T23:16:18.776Z,20.25
2019-05-18T23:18:56.907Z,20.21
2019-05-18T23:21:22.471Z,20.18
2019-05-18T23:23:53.510Z,20.15
2019-05-18T23:26:24.525Z,20.13
2019-05-18T23:28:55.517Z,20.09
2019-05-18T23:31:26.502Z,20.07
2019-05-18T23:33:58.557Z,20.04
2019-05-18T23:36:29.536Z,20.01
2019-05-18T23:39:00.502Z,19.97
2019-05-18T23:41:31.541Z,19.94
2019-05-18T23:44:02.506Z,19.90
2019-05-18T23:46:33.502Z,19.86
2019-05-18T23:49:10.821Z,19.85
2019-05-18T23:51:37.144Z,19.84
2019-05-18T23:54:08.129Z,19.81
2019-05-18T23:56:39.099Z,19.80
2019-05-18T23:59:10.069Z,19.77
